sensor_id;sensor_type;location;lat;lon;timestamp;temperature;humidity
43679;DHT22;29279;50.858;4.392;2023-05-17T00:01:50;12.10;99.90
43679;DHT22;29279;50.858;4.392;2023-05-17T00:04:16;12.10;99.90
43679;DHT22;29279;50.858;4.392;2023-05-17T00:06:44;12.10;99.90
43679;DHT22;29279;50.858;4.392;2023-05-17T00:09:10;12.10;99.90
43679;DHT22;29279;50.858;4.392;2023-05-17T00:11:36;12.10;99.90
43679;DHT22;29279;50.858;4.392;2023-05-17T00:14:04;12.00;99.90
43679;DHT22;29279;50.858;4.392;2023-05-17T00:16:30;12.00;99.90
43679;DHT22;29279;50.858;4.392;2023-05-17T00:18:56;12.00;99.90
43679;DHT22;29279;50.858;4.392;2023-05-17T00:21:22;12.00;99.90
43679;DHT22;29279;50.858;4.392;2023-05-17T00:23:47;12.00;99.90
43679;DHT22;29279;50.858;4.392;2023-05-17T00:26:13;12.00;99.90
43679;DHT22;29279;50.858;4.392;2023-05-17T00:28:39;12.00;99.90
43679;DHT22;29279;50.858;4.392;2023-05-17T00:31:04;12.00;99.90
43679;DHT22;29279;50.858;4.392;2023-05-17T00:33:30;12.00;99.90
43679;DHT22;29279;50.858;4.392;2023-05-17T00:35:56;11.90;99.90
43679;DHT22;29279;50.858;4.392;2023-05-17T00:38:22;11.90;99.90
43679;DHT22;29279;50.858;4.392;2023-05-17T00:40:48;11.90;99.90
43679;DHT22;29279;50.858;4.392;2023-05-17T00:43:14;11.90;99.90
43679;DHT22;29279;50.858;4.392;2023-05-17T00:45:40;11.80;99.90
43679;DHT22;29279;50.858;4.392;2023-05-17T00:48:06;11.80;99.90
43679;DHT22;29279;50.858;4.392;2023-05-17T00:50:32;11.80;99.90
43679;DHT22;29279;50.858;4.392;2023-05-17T00:52:58;11.80;99.90
43679;DHT22;29279;50.858;4.392;2023-05-17T00:55:23;11.70;99.90
43679;DHT22;29279;50.858;4.392;2023-05-17T00:57:52;11.70;99.90
43679;DHT22;29279;50.858;4.392;2023-05-17T01:00:18;11.70;99.90
43679;DHT22;29279;50.858;4.392;2023-05-17T01:02:44;11.70;99.90
43679;DHT22;29279;50.858;4.392;2023-05-17T01:05:12;11.70;99.90
43679;DHT22;29279;50.858;4.392;2023-05-17T01:07:38;11.70;99.90
43679;DHT22;29279;50.858;4.392;2023-05-17T01:10:05;11.70;99.90
43679;DHT22;29279;50.858;4.392;2023-05-17T01:12:53;11.60;99.90
43679;DHT22;29279;50.858;4.392;2023-05-17T01:15:27;11.60;99.90
43679;DHT22;29279;50.858;4.392;2023-05-17T01:20:45;11.50;99.90
43679;DHT22;29279;50.858;4.392;2023-05-17T01:26:56;11.50;99.90
43679;DHT22;29279;50.858;4.392;2023-05-17T01:28:58;11.50;99.90
43679;DHT22;29279;50.858;4.392;2023-05-17T01:31:25;11.50;99.90
43679;DHT22;29279;50.858;4.392;2023-05-17T01:33:51;11.50;99.90
43679;DHT22;29279;50.858;4.392;2023-05-17T01:36:17;11.50;99.90
43679;DHT22;29279;50.858;4.392;2023-05-17T01:38:43;11.50;99.90
43679;DHT22;29279;50.858;4.392;2023-05-17T01:41:29;11.40;99.90
43679;DHT22;29279;50.858;4.392;2023-05-17T01:44:03;11.40;99.90
43679;DHT22;29279;50.858;4.392;2023-05-17T01:49:07;11.40;99.90
43679;DHT22;29279;50.858;4.392;2023-05-17T01:51:39;11.30;99.90
43679;DHT22;29279;50.858;4.392;2023-05-17T01:54:10;11.40;99.90
43679;DHT22;29279;50.858;4.392;2023-05-17T01:56:41;11.40;99.90
43679;DHT22;29279;50.858;4.392;2023-05-17T01:59:09;11.40;99.90
43679;DHT22;29279;50.858;4.392;2023-05-17T02:01:35;11.40;99.90
43679;DHT22;29279;50.858;4.392;2023-05-17T02:04:01;11.40;99.90
43679;DHT22;29279;50.858;4.392;2023-05-17T02:06:27;11.30;99.90
43679;DHT22;29279;50.858;4.392;2023-05-17T02:08:53;11.40;99.90
43679;DHT22;29279;50.858;4.392;2023-05-17T02:11:19;11.30;99.90
43679;DHT22;29279;50.858;4.392;2023-05-17T02:13:44;11.30;99.90
43679;DHT22;29279;50.858;4.392;2023-05-17T02:16:10;11.30;99.90
43679;DHT22;29279;50.858;4.392;2023-05-17T02:18:36;11.30;99.90
43679;DHT22;29279;50.858;4.392;2023-05-17T02:21:03;11.30;99.90
43679;DHT22;29279;50.858;4.392;2023-05-17T02:23:28;11.30;99.90
43679;DHT22;29279;50.858;4.392;2023-05-17T02:25:54;11.40;99.90
43679;DHT22;29279;50.858;4.392;2023-05-17T02:28:20;11.40;99.90
43679;DHT22;29279;50.858;4.392;2023-05-17T02:30:45;11.40;99.90
43679;DHT22;29279;50.858;4.392;2023-05-17T02:33:11;11.30;99.90
43679;DHT22;29279;50.858;4.392;2023-05-17T02:35:37;11.40;99.90
43679;DHT22;29279;50.858;4.392;2023-05-17T02:38:02;11.30;99.90
43679;DHT22;29279;50.858;4.392;2023-05-17T02:40:28;11.30;99.90
43679;DHT22;29279;50.858;4.392;2023-05-17T02:42:54;11.30;99.90
43679;DHT22;29279;50.858;4.392;2023-05-17T02:45:19;11.30;99.90
43679;DHT22;29279;50.858;4.392;2023-05-17T02:47:45;11.20;99.90
43679;DHT22;29279;50.858;4.392;2023-05-17T02:50:11;11.20;99.90
43679;DHT22;29279;50.858;4.392;2023-05-17T02:52:36;11.20;99.90
43679;DHT22;29279;50.858;4.392;2023-05-17T02:55:02;11.20;99.90
43679;DHT22;29279;50.858;4.392;2023-05-17T02:57:30;11.20;99.90
43679;DHT22;29279;50.858;4.392;2023-05-17T02:59:56;11.20;99.90
43679;DHT22;29279;50.858;4.392;2023-05-17T03:02:21;11.20;99.90
43679;DHT22;29279;50.858;4.392;2023-05-17T03:04:47;11.30;99.90
43679;DHT22;29279;50.858;4.392;2023-05-17T03:07:13;11.20;99.90
43679;DHT22;29279;50.858;4.392;2023-05-17T03:09:38;11.20;99.90
43679;DHT22;29279;50.858;4.392;2023-05-17T03:12:04;11.20;99.90
43679;DHT22;29279;50.858;4.392;2023-05-17T03:14:30;11.20;99.90
43679;DHT22;29279;50.858;4.392;2023-05-17T03:16:56;11.20;99.90
43679;DHT22;29279;50.858;4.392;2023-05-17T03:19:22;11.20;99.90
43679;DHT22;29279;50.858;4.392;2023-05-17T03:21:47;11.20;99.90
43679;DHT22;29279;50.858;4.392;2023-05-17T03:24:13;11.20;99.90
43679;DHT22;29279;50.858;4.392;2023-05-17T03:26:39;11.30;99.90
43679;DHT22;29279;50.858;4.392;2023-05-17T03:29:04;11.30;99.90
43679;DHT22;29279;50.858;4.392;2023-05-17T03:31:30;11.30;99.90
43679;DHT22;29279;50.858;4.392;2023-05-17T03:33:56;11.30;99.90
43679;DHT22;29279;50.858;4.392;2023-05-17T03:36:22;11.30;99.90
43679;DHT22;29279;50.858;4.392;2023-05-17T03:38:47;11.30;99.90
43679;DHT22;29279;50.858;4.392;2023-05-17T03:41:14;11.30;99.90
43679;DHT22;29279;50.858;4.392;2023-05-17T03:43:39;11.40;99.90
43679;DHT22;29279;50.858;4.392;2023-05-17T03:46:05;11.40;99.90
43679;DHT22;29279;50.858;4.392;2023-05-17T03:48:31;11.40;99.90
43679;DHT22;29279;50.858;4.392;2023-05-17T03:50:57;11.40;99.90
43679;DHT22;29279;50.858;4.392;2023-05-17T03:53:23;11.40;99.90
43679;DHT22;29279;50.858;4.392;2023-05-17T03:55:49;11.40;99.90
43679;DHT22;29279;50.858;4.392;2023-05-17T03:58:14;11.40;99.90
43679;DHT22;29279;50.858;4.392;2023-05-17T04:00:40;11.40;99.90
43679;DHT22;29279;50.858;4.392;2023-05-17T04:03:06;11.40;99.90
43679;DHT22;29279;50.858;4.392;2023-05-17T04:05:32;11.40;99.90
43679;DHT22;29279;50.858;4.392;2023-05-17T04:07:57;11.30;99.90
43679;DHT22;29279;50.858;4.392;2023-05-17T04:10:23;11.30;99.90
43679;DHT22;29279;50.858;4.392;2023-05-17T04:12:49;11.30;99.90
43679;DHT22;29279;50.858;4.392;2023-05-17T04:15:14;11.40;99.90
43679;DHT22;29279;50.858;4.392;2023-05-17T04:17:40;11.40;99.90
43679;DHT22;29279;50.858;4.392;2023-05-17T04:20:06;11.40;99.90
43679;DHT22;29279;50.858;4.392;2023-05-17T04:22:32;11.50;99.90
43679;DHT22;29279;50.858;4.392;2023-05-17T04:24:58;11.50;99.90
43679;DHT22;29279;50.858;4.392;2023-05-17T04:27:25;11.50;99.90
43679;DHT22;29279;50.858;4.392;2023-05-17T04:29:50;11.60;99.90
43679;DHT22;29279;50.858;4.392;2023-05-17T04:32:17;11.70;99.90
43679;DHT22;29279;50.858;4.392;2023-05-17T04:34:43;11.80;99.90
43679;DHT22;29279;50.858;4.392;2023-05-17T04:37:09;11.80;99.90
43679;DHT22;29279;50.858;4.392;2023-05-17T04:39:34;11.90;99.90
43679;DHT22;29279;50.858;4.392;2023-05-17T04:42:00;11.90;99.90
43679;DHT22;29279;50.858;4.392;2023-05-17T04:44:26;12.00;99.90
43679;DHT22;29279;50.858;4.392;2023-05-17T04:46:52;12.10;99.90
43679;DHT22;29279;50.858;4.392;2023-05-17T04:49:18;12.10;99.90
43679;DHT22;29279;50.858;4.392;2023-05-17T04:51:44;12.20;99.90
43679;DHT22;29279;50.858;4.392;2023-05-17T04:54:09;12.30;99.90
43679;DHT22;29279;50.858;4.392;2023-05-17T04:56:35;12.40;99.90
43679;DHT22;29279;50.858;4.392;2023-05-17T04:59:02;12.40;99.90
43679;DHT22;29279;50.858;4.392;2023-05-17T05:01:28;12.50;99.90
43679;DHT22;29279;50.858;4.392;2023-05-17T05:03:55;12.60;99.90
43679;DHT22;29279;50.858;4.392;2023-05-17T05:06:22;12.70;99.90
43679;DHT22;29279;50.858;4.392;2023-05-17T05:08:47;12.70;99.90
43679;DHT22;29279;50.858;4.392;2023-05-17T05:11:13;12.80;99.90
43679;DHT22;29279;50.858;4.392;2023-05-17T05:13:39;12.80;99.90
43679;DHT22;29279;50.858;4.392;2023-05-17T05:16:06;12.90;99.90
43679;DHT22;29279;50.858;4.392;2023-05-17T05:18:32;12.90;99.90
43679;DHT22;29279;50.858;4.392;2023-05-17T05:20:58;12.90;99.90
43679;DHT22;29279;50.858;4.392;2023-05-17T05:23:24;13.00;99.90
43679;DHT22;29279;50.858;4.392;2023-05-17T05:25:50;13.00;99.90
43679;DHT22;29279;50.858;4.392;2023-05-17T05:28:16;13.10;99.90
43679;DHT22;29279;50.858;4.392;2023-05-17T05:30:42;13.20;99.90
43679;DHT22;29279;50.858;4.392;2023-05-17T05:33:07;13.20;99.90
43679;DHT22;29279;50.858;4.392;2023-05-17T05:35:33;13.30;99.90
43679;DHT22;29279;50.858;4.392;2023-05-17T05:37:59;13.40;99.90
43679;DHT22;29279;50.858;4.392;2023-05-17T05:40:25;13.40;99.90
43679;DHT22;29279;50.858;4.392;2023-05-17T05:42:52;13.40;99.90
43679;DHT22;29279;50.858;4.392;2023-05-17T05:45:18;13.50;99.90
43679;DHT22;29279;50.858;4.392;2023-05-17T05:47:43;13.50;99.90
43679;DHT22;29279;50.858;4.392;2023-05-17T05:50:09;13.60;99.90
43679;DHT22;29279;50.858;4.392;2023-05-17T05:52:37;13.70;99.90
43679;DHT22;29279;50.858;4.392;2023-05-17T05:55:03;13.80;99.90
43679;DHT22;29279;50.858;4.392;2023-05-17T05:57:28;13.90;99.90
43679;DHT22;29279;50.858;4.392;2023-05-17T05:59:54;14.00;99.90
43679;DHT22;29279;50.858;4.392;2023-05-17T06:02:20;14.00;99.90
43679;DHT22;29279;50.858;4.392;2023-05-17T06:04:49;14.00;99.90
43679;DHT22;29279;50.858;4.392;2023-05-17T06:07:14;14.20;99.90
43679;DHT22;29279;50.858;4.392;2023-05-17T06:09:41;14.20;99.90
43679;DHT22;29279;50.858;4.392;2023-05-17T06:12:07;14.20;99.90
43679;DHT22;29279;50.858;4.392;2023-05-17T06:14:32;14.30;99.90
43679;DHT22;29279;50.858;4.392;2023-05-17T06:16:58;14.40;99.90
43679;DHT22;29279;50.858;4.392;2023-05-17T06:19:24;14.50;99.90
43679;DHT22;29279;50.858;4.392;2023-05-17T06:21:49;14.60;99.90
43679;DHT22;29279;50.858;4.392;2023-05-17T06:24:15;14.70;99.90
43679;DHT22;29279;50.858;4.392;2023-05-17T06:26:41;14.80;99.90
43679;DHT22;29279;50.858;4.392;2023-05-17T06:29:11;14.90;99.90
43679;DHT22;29279;50.858;4.392;2023-05-17T06:31:37;14.90;99.90
43679;DHT22;29279;50.858;4.392;2023-05-17T06:34:02;15.00;99.90
43679;DHT22;29279;50.858;4.392;2023-05-17T06:36:28;15.10;99.90
43679;DHT22;29279;50.858;4.392;2023-05-17T06:38:54;15.20;99.90
43679;DHT22;29279;50.858;4.392;2023-05-17T06:41:20;15.30;99.90
43679;DHT22;29279;50.858;4.392;2023-05-17T06:43:46;15.40;99.90
43679;DHT22;29279;50.858;4.392;2023-05-17T06:46:11;15.40;99.90
43679;DHT22;29279;50.858;4.392;2023-05-17T06:48:37;15.40;99.90
43679;DHT22;29279;50.858;4.392;2023-05-17T06:51:03;15.50;99.90
43679;DHT22;29279;50.858;4.392;2023-05-17T06:53:28;15.60;99.90
43679;DHT22;29279;50.858;4.392;2023-05-17T06:55:54;15.60;99.90
43679;DHT22;29279;50.858;4.392;2023-05-17T06:58:20;15.60;99.90
43679;DHT22;29279;50.858;4.392;2023-05-17T07:00:45;15.70;99.90
43679;DHT22;29279;50.858;4.392;2023-05-17T07:03:11;15.70;99.90
43679;DHT22;29279;50.858;4.392;2023-05-17T07:05:37;15.70;99.90
43679;DHT22;29279;50.858;4.392;2023-05-17T07:08:02;15.60;99.90
43679;DHT22;29279;50.858;4.392;2023-05-17T07:10:28;15.50;99.90
43679;DHT22;29279;50.858;4.392;2023-05-17T07:12:54;15.60;99.90
43679;DHT22;29279;50.858;4.392;2023-05-17T07:15:20;15.80;99.90
43679;DHT22;29279;50.858;4.392;2023-05-17T07:17:45;16.00;99.90
43679;DHT22;29279;50.858;4.392;2023-05-17T07:20:12;16.20;99.90
43679;DHT22;29279;50.858;4.392;2023-05-17T07:22:39;16.10;99.90
43679;DHT22;29279;50.858;4.392;2023-05-17T07:25:05;16.00;99.90
43679;DHT22;29279;50.858;4.392;2023-05-17T07:27:31;16.00;99.90
43679;DHT22;29279;50.858;4.392;2023-05-17T07:29:57;16.00;99.90
43679;DHT22;29279;50.858;4.392;2023-05-17T07:32:22;16.10;99.90
43679;DHT22;29279;50.858;4.392;2023-05-17T07:34:48;16.20;99.90
43679;DHT22;29279;50.858;4.392;2023-05-17T07:37:14;16.20;99.90
43679;DHT22;29279;50.858;4.392;2023-05-17T07:39:39;16.30;99.90
43679;DHT22;29279;50.858;4.392;2023-05-17T07:42:05;16.20;99.90
43679;DHT22;29279;50.858;4.392;2023-05-17T07:44:31;16.40;99.90
43679;DHT22;29279;50.858;4.392;2023-05-17T07:46:57;16.50;99.90
43679;DHT22;29279;50.858;4.392;2023-05-17T07:49:23;16.60;99.90
43679;DHT22;29279;50.858;4.392;2023-05-17T07:51:49;16.60;99.90
43679;DHT22;29279;50.858;4.392;2023-05-17T07:54:24;16.60;99.90
43679;DHT22;29279;50.858;4.392;2023-05-17T07:56:53;16.70;99.90
43679;DHT22;29279;50.858;4.392;2023-05-17T07:59:23;16.90;99.90
43679;DHT22;29279;50.858;4.392;2023-05-17T08:01:49;17.00;99.90
43679;DHT22;29279;50.858;4.392;2023-05-17T08:04:15;17.00;99.90
43679;DHT22;29279;50.858;4.392;2023-05-17T08:06:42;16.90;99.90
43679;DHT22;29279;50.858;4.392;2023-05-17T08:09:10;16.90;99.90
43679;DHT22;29279;50.858;4.392;2023-05-17T08:11:35;17.00;99.90
43679;DHT22;29279;50.858;4.392;2023-05-17T08:14:02;17.10;99.90
43679;DHT22;29279;50.858;4.392;2023-05-17T08:16:28;17.20;99.90
43679;DHT22;29279;50.858;4.392;2023-05-17T08:18:53;17.50;99.90
43679;DHT22;29279;50.858;4.392;2023-05-17T08:21:19;17.50;99.90
43679;DHT22;29279;50.858;4.392;2023-05-17T08:23:45;17.60;99.90
43679;DHT22;29279;50.858;4.392;2023-05-17T08:26:11;17.80;99.90
43679;DHT22;29279;50.858;4.392;2023-05-17T08:28:37;18.00;99.90
43679;DHT22;29279;50.858;4.392;2023-05-17T08:31:03;18.30;99.90
43679;DHT22;29279;50.858;4.392;2023-05-17T08:33:29;18.50;99.90
43679;DHT22;29279;50.858;4.392;2023-05-17T08:35:55;18.80;99.90
43679;DHT22;29279;50.858;4.392;2023-05-17T08:38:22;19.00;99.90
43679;DHT22;29279;50.858;4.392;2023-05-17T08:40:55;19.00;98.90
43679;DHT22;29279;50.858;4.392;2023-05-17T08:43:22;19.00;98.50
43679;DHT22;29279;50.858;4.392;2023-05-17T08:45:49;18.90;97.70
43679;DHT22;29279;50.858;4.392;2023-05-17T08:48:15;19.00;97.50
43679;DHT22;29279;50.858;4.392;2023-05-17T08:50:49;19.10;97.20
43679;DHT22;29279;50.858;4.392;2023-05-17T08:53:16;19.20;97.30
43679;DHT22;29279;50.858;4.392;2023-05-17T08:55:45;19.40;96.40
43679;DHT22;29279;50.858;4.392;2023-05-17T08:58:17;19.30;96.20
43679;DHT22;29279;50.858;4.392;2023-05-17T09:00:45;19.10;95.50
43679;DHT22;29279;50.858;4.392;2023-05-17T09:03:14;19.00;95.60
43679;DHT22;29279;50.858;4.392;2023-05-17T09:05:42;18.80;96.30
43679;DHT22;29279;50.858;4.392;2023-05-17T09:08:08;19.00;96.30
43679;DHT22;29279;50.858;4.392;2023-05-17T09:10:41;19.20;96.50
43679;DHT22;29279;50.858;4.392;2023-05-17T09:13:10;19.40;96.20
43679;DHT22;29279;50.858;4.392;2023-05-17T09:15:37;19.40;96.00
43679;DHT22;29279;50.858;4.392;2023-05-17T09:18:03;19.60;96.00
43679;DHT22;29279;50.858;4.392;2023-05-17T09:20:29;19.80;95.60
43679;DHT22;29279;50.858;4.392;2023-05-17T09:23:02;20.20;94.80
43679;DHT22;29279;50.858;4.392;2023-05-17T09:25:29;20.30;93.90
43679;DHT22;29279;50.858;4.392;2023-05-17T09:28:00;20.30;93.80
43679;DHT22;29279;50.858;4.392;2023-05-17T09:30:27;20.30;93.30
43679;DHT22;29279;50.858;4.392;2023-05-17T09:32:53;20.40;94.20
43679;DHT22;29279;50.858;4.392;2023-05-17T09:35:29;20.60;93.60
43679;DHT22;29279;50.858;4.392;2023-05-17T09:40:29;20.70;92.70
43679;DHT22;29279;50.858;4.392;2023-05-17T09:42:56;20.90;92.20
43679;DHT22;29279;50.858;4.392;2023-05-17T09:45:22;20.90;91.60
43679;DHT22;29279;50.858;4.392;2023-05-17T09:47:49;20.80;91.80
43679;DHT22;29279;50.858;4.392;2023-05-17T09:50:19;20.90;91.30
43679;DHT22;29279;50.858;4.392;2023-05-17T09:52:45;21.20;90.70
43679;DHT22;29279;50.858;4.392;2023-05-17T09:55:11;21.30;90.50
43679;DHT22;29279;50.858;4.392;2023-05-17T09:57:38;21.50;89.30
43679;DHT22;29279;50.858;4.392;2023-05-17T10:00:06;21.80;88.50
43679;DHT22;29279;50.858;4.392;2023-05-17T10:02:38;21.70;88.00
43679;DHT22;29279;50.858;4.392;2023-05-17T10:05:11;21.40;87.30
43679;DHT22;29279;50.858;4.392;2023-05-17T10:07:37;21.40;87.50
43679;DHT22;29279;50.858;4.392;2023-05-17T10:10:06;21.40;87.40
43679;DHT22;29279;50.858;4.392;2023-05-17T10:12:32;21.50;86.20
43679;DHT22;29279;50.858;4.392;2023-05-17T10:15:00;21.80;86.30
43679;DHT22;29279;50.858;4.392;2023-05-17T10:17:26;22.20;84.60
43679;DHT22;29279;50.858;4.392;2023-05-17T10:19:55;22.50;82.50
43679;DHT22;29279;50.858;4.392;2023-05-17T10:22:21;22.50;82.60
43679;DHT22;29279;50.858;4.392;2023-05-17T10:24:48;23.00;82.30
43679;DHT22;29279;50.858;4.392;2023-05-17T10:27:16;23.10;81.50
43679;DHT22;29279;50.858;4.392;2023-05-17T10:29:43;23.40;79.40
43679;DHT22;29279;50.858;4.392;2023-05-17T10:32:08;23.00;80.10
43679;DHT22;29279;50.858;4.392;2023-05-17T10:34:38;22.70;79.50
43679;DHT22;29279;50.858;4.392;2023-05-17T10:37:05;23.50;80.80
43679;DHT22;29279;50.858;4.392;2023-05-17T10:39:32;24.00;77.00
43679;DHT22;29279;50.858;4.392;2023-05-17T10:42:01;24.20;74.00
43679;DHT22;29279;50.858;4.392;2023-05-17T10:44:31;24.50;73.50
43679;DHT22;29279;50.858;4.392;2023-05-17T10:46:58;24.70;73.20
43679;DHT22;29279;50.858;4.392;2023-05-17T10:49:36;24.90;70.60
43679;DHT22;29279;50.858;4.392;2023-05-17T10:52:28;25.20;70.70
43679;DHT22;29279;50.858;4.392;2023-05-17T10:54:58;26.00;69.80
43679;DHT22;29279;50.858;4.392;2023-05-17T10:57:35;26.30;68.30
43679;DHT22;29279;50.858;4.392;2023-05-17T11:00:02;26.70;68.60
43679;DHT22;29279;50.858;4.392;2023-05-17T11:02:31;27.20;66.40
43679;DHT22;29279;50.858;4.392;2023-05-17T11:04:57;27.50;64.70
43679;DHT22;29279;50.858;4.392;2023-05-17T11:07:26;27.70;65.20
43679;DHT22;29279;50.858;4.392;2023-05-17T11:12:42;28.10;63.40
43679;DHT22;29279;50.858;4.392;2023-05-17T11:22:41;27.90;61.60
43679;DHT22;29279;50.858;4.392;2023-05-17T11:25:10;28.10;60.80
43679;DHT22;29279;50.858;4.392;2023-05-17T11:27:46;28.30;61.50
43679;DHT22;29279;50.858;4.392;2023-05-17T11:32:50;29.50;58.90
43679;DHT22;29279;50.858;4.392;2023-05-17T11:35:17;29.40;59.00
43679;DHT22;29279;50.858;4.392;2023-05-17T11:37:44;29.50;58.40
43679;DHT22;29279;50.858;4.392;2023-05-17T11:40:10;29.70;58.00
43679;DHT22;29279;50.858;4.392;2023-05-17T11:42:38;29.70;58.40
43679;DHT22;29279;50.858;4.392;2023-05-17T11:45:05;30.10;58.00
43679;DHT22;29279;50.858;4.392;2023-05-17T11:47:31;30.30;56.60
43679;DHT22;29279;50.858;4.392;2023-05-17T11:50:02;29.60;57.90
43679;DHT22;29279;50.858;4.392;2023-05-17T11:52:28;29.50;57.30
43679;DHT22;29279;50.858;4.392;2023-05-17T11:54:56;29.90;57.00
43679;DHT22;29279;50.858;4.392;2023-05-17T11:57:28;29.00;56.90
43679;DHT22;29279;50.858;4.392;2023-05-17T11:59:58;28.50;56.80
43679;DHT22;29279;50.858;4.392;2023-05-17T12:02:29;28.10;57.30
43679;DHT22;29279;50.858;4.392;2023-05-17T12:04:55;28.10;58.10
43679;DHT22;29279;50.858;4.392;2023-05-17T12:07:20;28.50;58.00
43679;DHT22;29279;50.858;4.392;2023-05-17T12:09:46;29.30;56.70
43679;DHT22;29279;50.858;4.392;2023-05-17T12:12:13;29.50;56.20
43679;DHT22;29279;50.858;4.392;2023-05-17T12:14:42;29.50;56.70
43679;DHT22;29279;50.858;4.392;2023-05-17T12:17:08;29.00;56.50
43679;DHT22;29279;50.858;4.392;2023-05-17T12:19:36;27.40;56.60
43679;DHT22;29279;50.858;4.392;2023-05-17T12:22:06;26.10;58.30
43679;DHT22;29279;50.858;4.392;2023-05-17T12:24:41;25.20;58.80
43679;DHT22;29279;50.858;4.392;2023-05-17T12:27:07;25.00;59.50
43679;DHT22;29279;50.858;4.392;2023-05-17T12:29:33;26.80;58.10
43679;DHT22;29279;50.858;4.392;2023-05-17T12:32:00;27.00;57.90
43679;DHT22;29279;50.858;4.392;2023-05-17T12:34:28;26.00;58.50
43679;DHT22;29279;50.858;4.392;2023-05-17T12:36:54;25.70;59.80
43679;DHT22;29279;50.858;4.392;2023-05-17T12:39:21;27.40;58.60
43679;DHT22;29279;50.858;4.392;2023-05-17T12:41:50;28.70;56.90
43679;DHT22;29279;50.858;4.392;2023-05-17T12:44:17;28.40;56.70
43679;DHT22;29279;50.858;4.392;2023-05-17T12:46:48;26.30;57.50
43679;DHT22;29279;50.858;4.392;2023-05-17T12:49:23;25.40;58.70
43679;DHT22;29279;50.858;4.392;2023-05-17T12:51:49;26.70;57.70
43679;DHT22;29279;50.858;4.392;2023-05-17T12:56:49;26.50;57.50
43679;DHT22;29279;50.858;4.392;2023-05-17T12:59:16;25.90;58.10
43679;DHT22;29279;50.858;4.392;2023-05-17T13:01:46;24.70;58.80
43679;DHT22;29279;50.858;4.392;2023-05-17T13:04:13;23.60;60.00
43679;DHT22;29279;50.858;4.392;2023-05-17T13:06:44;23.00;61.20
43679;DHT22;29279;50.858;4.392;2023-05-17T13:09:10;24.50;60.60
43679;DHT22;29279;50.858;4.392;2023-05-17T13:11:36;26.10;58.50
43679;DHT22;29279;50.858;4.392;2023-05-17T13:14:06;27.30;57.40
43679;DHT22;29279;50.858;4.392;2023-05-17T13:16:33;27.70;57.50
43679;DHT22;29279;50.858;4.392;2023-05-17T13:19:01;27.40;57.30
43679;DHT22;29279;50.858;4.392;2023-05-17T13:21:27;27.80;57.10
43679;DHT22;29279;50.858;4.392;2023-05-17T13:23:52;27.10;57.00
43679;DHT22;29279;50.858;4.392;2023-05-17T13:26:19;27.30;57.30
43679;DHT22;29279;50.858;4.392;2023-05-17T13:28:47;28.20;57.80
43679;DHT22;29279;50.858;4.392;2023-05-17T13:31:13;26.80;56.60
43679;DHT22;29279;50.858;4.392;2023-05-17T13:33:38;25.20;57.00
43679;DHT22;29279;50.858;4.392;2023-05-17T13:36:04;26.00;57.20
43679;DHT22;29279;50.858;4.392;2023-05-17T13:38:30;27.20;57.30
43679;DHT22;29279;50.858;4.392;2023-05-17T13:40:56;28.30;56.20
43679;DHT22;29279;50.858;4.392;2023-05-17T13:43:22;27.90;56.10
43679;DHT22;29279;50.858;4.392;2023-05-17T13:45:47;26.40;56.70
43679;DHT22;29279;50.858;4.392;2023-05-17T13:48:18;25.70;57.80
43679;DHT22;29279;50.858;4.392;2023-05-17T13:50:44;25.80;57.70
43679;DHT22;29279;50.858;4.392;2023-05-17T13:53:10;27.10;58.10
43679;DHT22;29279;50.858;4.392;2023-05-17T13:55:36;28.30;55.90
43679;DHT22;29279;50.858;4.392;2023-05-17T13:58:03;28.00;55.60
43679;DHT22;29279;50.858;4.392;2023-05-17T14:00:29;28.10;55.70
43679;DHT22;29279;50.858;4.392;2023-05-17T14:02:55;28.20;55.40
43679;DHT22;29279;50.858;4.392;2023-05-17T14:05:21;28.50;55.50
43679;DHT22;29279;50.858;4.392;2023-05-17T14:07:47;28.60;55.70
43679;DHT22;29279;50.858;4.392;2023-05-17T14:10:12;28.60;55.30
43679;DHT22;29279;50.858;4.392;2023-05-17T14:12:38;28.50;55.40
43679;DHT22;29279;50.858;4.392;2023-05-17T14:15:05;28.80;55.30
43679;DHT22;29279;50.858;4.392;2023-05-17T14:17:32;29.00;55.70
43679;DHT22;29279;50.858;4.392;2023-05-17T14:19:58;29.00;55.70
43679;DHT22;29279;50.858;4.392;2023-05-17T14:22:23;28.50;55.00
43679;DHT22;29279;50.858;4.392;2023-05-17T14:24:49;27.90;54.90
43679;DHT22;29279;50.858;4.392;2023-05-17T14:27:15;27.50;55.50
43679;DHT22;29279;50.858;4.392;2023-05-17T14:29:41;26.40;56.50
43679;DHT22;29279;50.858;4.392;2023-05-17T14:32:06;26.50;57.20
43679;DHT22;29279;50.858;4.392;2023-05-17T14:34:32;26.90;56.90
43679;DHT22;29279;50.858;4.392;2023-05-17T14:36:58;27.10;55.50
43679;DHT22;29279;50.858;4.392;2023-05-17T14:39:25;27.20;55.70
43679;DHT22;29279;50.858;4.392;2023-05-17T14:41:50;26.90;56.70
43679;DHT22;29279;50.858;4.392;2023-05-17T14:44:16;26.90;56.80
43679;DHT22;29279;50.858;4.392;2023-05-17T14:46:42;26.80;56.10
43679;DHT22;29279;50.858;4.392;2023-05-17T14:49:07;26.60;56.90
43679;DHT22;29279;50.858;4.392;2023-05-17T14:51:33;26.70;56.50
43679;DHT22;29279;50.858;4.392;2023-05-17T14:54:00;26.90;56.50
43679;DHT22;29279;50.858;4.392;2023-05-17T14:56:26;26.90;56.30
43679;DHT22;29279;50.858;4.392;2023-05-17T14:58:53;26.60;55.90
43679;DHT22;29279;50.858;4.392;2023-05-17T15:01:19;25.90;56.70
43679;DHT22;29279;50.858;4.392;2023-05-17T15:03:45;25.40;57.30
43679;DHT22;29279;50.858;4.392;2023-05-17T15:06:11;25.00;57.30
43679;DHT22;29279;50.858;4.392;2023-05-17T15:08:37;24.70;57.80
43679;DHT22;29279;50.858;4.392;2023-05-17T15:11:03;24.40;57.60
43679;DHT22;29279;50.858;4.392;2023-05-17T15:13:29;24.10;58.30
43679;DHT22;29279;50.858;4.392;2023-05-17T15:15:55;24.00;59.30
43679;DHT22;29279;50.858;4.392;2023-05-17T15:18:20;24.00;58.80
43679;DHT22;29279;50.858;4.392;2023-05-17T15:20:46;23.80;59.60
43679;DHT22;29279;50.858;4.392;2023-05-17T15:23:12;23.70;59.10
43679;DHT22;29279;50.858;4.392;2023-05-17T15:25:38;23.80;59.30
43679;DHT22;29279;50.858;4.392;2023-05-17T15:28:04;23.80;59.50
43679;DHT22;29279;50.858;4.392;2023-05-17T15:30:30;23.50;60.10
43679;DHT22;29279;50.858;4.392;2023-05-17T15:32:57;23.60;60.50
43679;DHT22;29279;50.858;4.392;2023-05-17T15:35:23;23.70;59.30
43679;DHT22;29279;50.858;4.392;2023-05-17T15:37:50;23.80;59.10
43679;DHT22;29279;50.858;4.392;2023-05-17T15:40:17;23.80;59.20
43679;DHT22;29279;50.858;4.392;2023-05-17T15:42:43;23.80;59.10
43679;DHT22;29279;50.858;4.392;2023-05-17T15:45:09;23.70;60.00
43679;DHT22;29279;50.858;4.392;2023-05-17T15:47:35;23.40;60.30
43679;DHT22;29279;50.858;4.392;2023-05-17T15:50:01;23.20;63.70
43679;DHT22;29279;50.858;4.392;2023-05-17T15:52:27;23.10;61.30
43679;DHT22;29279;50.858;4.392;2023-05-17T15:54:52;23.10;61.50